Time;durP1;ratioP1;P1;durP2;ratioP2;P2;SDS_P1;SDS_P2;PMS_P1;PMS_P2;Temp;Humidity;BMP_temperature;BMP_pressure;BME280_temperature;BME280_humidity;BME280_pressure;Samples;Min_cycle;Max_cycle;Signal;HPM_P1;HPM_P2
2022/04/13 00:00:09;;;;;;;7.60;4.68;;;7.90;99.90;;;;;;5053063;28;20138;-59
2022/04/13 00:02:36;;;;;;;8.50;5.00;;;7.80;99.90;;;;;;5036886;28;20029;-60
2022/04/13 00:05:02;;;;;;;7.05;5.30;;;7.80;99.90;;;;;;5035163;28;20051;-59
2022/04/13 00:07:28;;;;;;;5.57;4.82;;;7.80;99.90;;;;;;5044262;28;20041;-59
2022/04/13 00:09:55;;;;;;;7.70;5.55;;;7.80;99.90;;;;;;5039494;28;20721;-59
2022/04/13 00:12:21;;;;;;;5.90;4.93;;;7.80;99.90;;;;;;5052011;28;20029;-59
2022/04/13 00:14:47;;;;;;;11.70;5.43;;;7.70;99.90;;;;;;5052635;28;20060;-60
2022/04/13 00:17:12;;;;;;;6.97;5.57;;;7.70;99.90;;;;;;5044415;28;20554;-60
2022/04/13 00:19:38;;;;;;;9.25;5.95;;;7.70;99.90;;;;;;5032854;28;20032;-59
2022/04/13 00:22:04;;;;;;;9.50;5.38;;;7.60;99.90;;;;;;5033652;28;20071;-60
2022/04/13 00:24:30;;;;;;;8.90;5.78;;;7.50;99.90;;;;;;5042863;28;20036;-60
2022/04/13 00:26:57;;;;;;;8.35;5.32;;;7.40;99.90;;;;;;5046401;28;20025;-60
2022/04/13 00:29:23;;;;;;;11.80;6.15;;;7.30;99.90;;;;;;5032668;28;20022;-60
2022/04/13 00:31:51;;;;;;;9.43;6.10;;;7.20;99.90;;;;;;5033713;28;20044;-60
2022/04/13 00:34:17;;;;;;;8.85;6.22;;;7.10;99.90;;;;;;5044003;28;20036;-60
2022/04/13 00:36:42;;;;;;;8.25;6.03;;;7.00;99.90;;;;;;5052166;28;20036;-59
2022/04/13 00:39:08;;;;;;;6.15;5.32;;;6.90;99.90;;;;;;5052016;28;20464;-59
2022/04/13 00:41:34;;;;;;;11.48;5.68;;;6.90;99.90;;;;;;5051878;28;20503;-60
2022/04/13 00:44:10;;;;;;;9.95;6.60;;;6.80;99.90;;;;;;5052142;28;20029;-59
2022/04/13 00:46:36;;;;;;;11.80;6.50;;;6.80;99.90;;;;;;5051573;28;20021;-60
2022/04/13 00:49:04;;;;;;;9.13;5.63;;;6.80;99.90;;;;;;5051784;28;20029;-59
2022/04/13 00:51:30;;;;;;;10.60;6.15;;;6.80;99.90;;;;;;5051353;28;20116;-59
2022/04/13 00:53:57;;;;;;;7.45;5.65;;;6.90;99.90;;;;;;5046283;28;20105;-59
2022/04/13 00:56:25;;;;;;;10.05;5.93;;;6.90;99.90;;;;;;5031983;28;20056;-59
2022/04/13 00:59:00;;;;;;;8.95;6.35;;;7.00;99.90;;;;;;5033192;28;20380;-59
2022/04/13 01:01:26;;;;;;;9.43;6.05;;;7.10;99.90;;;;;;5031740;28;20026;-59
2022/04/13 01:03:52;;;;;;;7.75;6.10;;;7.20;99.90;;;;;;5045101;28;20539;-59
2022/04/13 01:06:20;;;;;;;10.15;5.88;;;7.20;99.90;;;;;;5037175;28;20025;-59
2022/04/13 01:08:50;;;;;;;9.18;6.05;;;7.20;99.90;;;;;;5037658;28;20041;-60
2022/04/13 01:11:41;;;;;;;8.38;5.90;;;7.10;99.90;;;;;;5050807;28;20029;-60
2022/04/13 01:14:08;;;;;;;8.20;6.00;;;7.10;99.90;;;;;;5050889;28;20444;-60
2022/04/13 01:16:37;;;;;;;17.95;6.85;;;6.90;99.90;;;;;;5050441;28;20078;-60
2022/04/13 01:19:04;;;;;;;10.93;6.65;;;6.80;99.90;;;;;;5050815;28;20048;-60
2022/04/13 01:22:03;;;;;;;10.38;6.20;;;6.80;99.90;;;;;;5050791;28;20071;-60
2022/04/13 01:24:29;;;;;;;10.60;6.80;;;6.80;99.90;;;;;;5041242;28;20040;-60
2022/04/13 01:26:55;;;;;;;15.18;7.32;;;6.80;99.90;;;;;;5031682;28;20036;-60
2022/04/13 01:29:21;;;;;;;10.93;6.80;;;6.70;99.90;;;;;;5031644;28;20067;-60
2022/04/13 01:31:48;;;;;;;10.52;6.78;;;6.70;99.90;;;;;;5032741;28;20022;-59
2022/04/13 01:34:13;;;;;;;11.02;7.85;;;6.70;99.90;;;;;;5031519;28;20048;-59
2022/04/13 01:36:39;;;;;;;12.75;6.75;;;6.70;99.90;;;;;;5044697;28;20033;-60
2022/04/13 01:39:07;;;;;;;9.90;6.63;;;6.70;99.90;;;;;;5051283;28;20024;-59
2022/04/13 01:41:32;;;;;;;10.10;7.22;;;6.70;99.90;;;;;;5050956;28;20074;-59
2022/04/13 01:43:58;;;;;;;10.98;7.13;;;6.80;99.90;;;;;;5055196;28;20028;-60
2022/04/13 01:46:24;;;;;;;11.23;7.65;;;6.80;99.90;;;;;;5043111;28;20078;-59
2022/04/13 01:48:50;;;;;;;9.13;6.32;;;6.80;99.90;;;;;;5050132;28;20031;-59
2022/04/13 01:51:20;;;;;;;9.18;6.38;;;6.80;99.90;;;;;;5049674;28;20507;-59
2022/04/13 01:53:50;;;;;;;11.30;6.75;;;6.80;99.90;;;;;;5030983;28;20061;-59
2022/04/13 01:56:16;;;;;;;14.25;7.18;;;6.70;99.90;;;;;;5031091;28;20021;-59
2022/04/13 01:58:41;;;;;;;13.07;6.95;;;6.70;99.90;;;;;;5031690;28;20037;-59
2022/04/13 02:01:07;;;;;;;10.00;7.53;;;6.70;99.90;;;;;;5031102;28;20064;-59
2022/04/13 02:03:33;;;;;;;8.57;6.82;;;6.70;99.90;;;;;;5039300;28;20040;-59
2022/04/13 02:05:59;;;;;;;8.63;6.22;;;6.60;99.90;;;;;;5049229;28;20077;-59
2022/04/13 02:08:26;;;;;;;6.88;6.10;;;6.60;99.90;;;;;;5040889;28;20043;-59
2022/04/13 02:10:52;;;;;;;8.18;6.25;;;6.50;99.90;;;;;;5050769;28;20044;-59
2022/04/13 02:13:21;;;;;;;7.32;5.60;;;6.30;99.90;;;;;;5050425;28;20037;-59
2022/04/13 02:15:48;;;;;;;10.45;6.60;;;6.00;99.90;;;;;;5050894;28;20041;-59
2022/04/13 02:18:14;;;;;;;10.10;6.25;;;5.80;99.90;;;;;;5054391;28;20106;-60
2022/04/13 02:20:40;;;;;;;12.85;5.75;;;5.60;99.90;;;;;;5040098;28;20021;-59
2022/04/13 02:23:05;;;;;;;11.02;7.57;;;5.50;99.90;;;;;;5052871;28;20475;-59
2022/04/13 02:25:34;;;;;;;10.43;6.25;;;5.50;99.90;;;;;;5054703;28;20021;-60
2022/04/13 02:28:01;;;;;;;9.00;6.18;;;5.40;99.90;;;;;;5054251;28;20033;-59
2022/04/13 02:30:27;;;;;;;13.90;6.85;;;5.20;99.90;;;;;;5054373;28;20037;-59
2022/04/13 02:32:52;;;;;;;8.68;6.38;;;5.10;99.90;;;;;;5052884;28;20044;-59
2022/04/13 02:35:18;;;;;;;15.45;6.18;;;5.10;99.90;;;;;;5054145;28;20028;-59
2022/04/13 02:37:43;;;;;;;9.88;7.25;;;5.10;99.90;;;;;;5041537;28;20121;-59
2022/04/13 02:40:10;;;;;;;19.63;8.75;;;5.00;99.90;;;;;;5049857;28;20040;-59
2022/04/13 02:42:36;;;;;;;19.83;9.75;;;5.10;99.90;;;;;;5053791;28;20376;-59
2022/04/13 02:45:03;;;;;;;21.20;8.30;;;5.10;99.90;;;;;;5054368;28;20481;-59
2022/04/13 02:47:31;;;;;;;10.77;7.35;;;5.10;99.90;;;;;;5053017;28;20112;-59
2022/04/13 02:49:57;;;;;;;14.45;7.88;;;5.10;99.90;;;;;;5045274;28;20364;-59
2022/04/13 02:52:25;;;;;;;22.33;8.45;;;5.10;99.90;;;;;;5032830;28;20044;-59
2022/04/13 02:54:51;;;;;;;17.33;7.95;;;5.10;99.90;;;;;;5034331;28;20017;-59
2022/04/13 02:57:17;;;;;;;16.17;7.97;;;5.10;99.90;;;;;;5035237;28;20040;-59
2022/04/13 02:59:46;;;;;;;13.77;7.70;;;5.10;99.90;;;;;;5034525;28;20109;-59
2022/04/13 03:02:14;;;;;;;10.15;7.95;;;5.00;99.90;;;;;;5039190;28;20411;-59
2022/04/13 03:04:46;;;;;;;14.10;9.10;;;4.90;99.90;;;;;;5053329;28;20100;-59
2022/04/13 03:07:14;;;;;;;19.10;8.05;;;4.90;99.90;;;;;;5053642;28;20132;-59
2022/04/13 03:09:46;;;;;;;13.93;7.82;;;4.80;99.90;;;;;;5052268;28;20084;-59
2022/04/13 03:12:16;;;;;;;11.10;7.55;;;4.80;99.90;;;;;;5038297;28;20029;-59
2022/04/13 03:14:42;;;;;;;13.00;7.85;;;4.70;99.90;;;;;;5043126;28;20511;-59
2022/04/13 03:17:08;;;;;;;13.30;8.45;;;4.70;99.90;;;;;;5053206;28;20032;-59
2022/04/13 03:19:34;;;;;;;12.93;8.82;;;4.60;99.90;;;;;;5048314;28;20029;-59
2022/04/13 03:21:59;;;;;;;13.63;9.02;;;4.50;99.90;;;;;;5033562;28;20657;-59
2022/04/13 03:24:25;;;;;;;15.90;8.38;;;4.50;99.90;;;;;;5034069;28;20026;-59
2022/04/13 03:26:52;;;;;;;14.75;9.27;;;4.40;99.90;;;;;;5046925;28;20352;-59
2022/04/13 03:29:18;;;;;;;11.32;7.93;;;4.30;99.90;;;;;;5052472;28;20025;-59
2022/04/13 03:31:44;;;;;;;14.52;8.85;;;4.30;99.90;;;;;;5052897;28;20036;-59
2022/04/13 03:34:10;;;;;;;9.45;7.53;;;4.20;99.90;;;;;;5035310;28;20033;-59
2022/04/13 03:36:41;;;;;;;10.10;7.85;;;4.20;99.90;;;;;;5033629;28;20032;-59
2022/04/13 03:39:07;;;;;;;15.75;8.25;;;4.30;99.90;;;;;;5033454;28;20481;-59
2022/04/13 03:41:36;;;;;;;9.32;7.07;;;4.20;99.90;;;;;;5034666;28;20116;-59
2022/04/13 03:44:02;;;;;;;14.93;7.47;;;4.20;99.90;;;;;;5033432;28;20516;-59
2022/04/13 03:46:28;;;;;;;11.15;8.02;;;4.20;99.90;;;;;;5033282;28;20376;-59
2022/04/13 03:48:54;;;;;;;14.52;8.15;;;4.10;99.90;;;;;;5033383;28;20018;-59
2022/04/13 03:51:19;;;;;;;13.70;8.43;;;4.10;99.90;;;;;;5052603;28;20059;-59
2022/04/13 03:53:45;;;;;;;12.18;8.02;;;4.00;99.90;;;;;;5053196;28;20019;-59
2022/04/13 03:56:11;;;;;;;15.75;7.68;;;4.00;99.90;;;;;;5047569;28;20037;-59
2022/04/13 03:58:40;;;;;;;11.75;8.13;;;3.90;99.90;;;;;;5034453;28;20021;-58
2022/04/13 04:01:06;;;;;;;11.57;7.78;;;3.90;99.90;;;;;;5032910;28;20033;-59
2022/04/13 04:03:32;;;;;;;16.17;9.18;;;3.80;99.90;;;;;;5041493;28;20017;-59
2022/04/13 04:05:57;;;;;;;15.18;8.07;;;3.70;99.90;;;;;;5052973;28;20047;-60
2022/04/13 04:08:25;;;;;;;12.00;8.85;;;3.70;99.90;;;;;;5052610;28;20708;-52
2022/04/13 04:10:52;;;;;;;13.57;8.52;;;3.70;99.90;;;;;;5043890;28;20488;-59
2022/04/13 04:13:18;;;;;;;12.35;8.18;;;3.70;99.90;;;;;;5051978;28;20120;-59
2022/04/13 04:15:44;;;;;;;18.70;9.18;;;3.80;99.90;;;;;;5052457;28;20119;-60
2022/04/13 04:18:09;;;;;;;19.58;9.02;;;3.70;99.90;;;;;;5052176;28;20036;-60
2022/04/13 04:20:35;;;;;;;17.55;8.93;;;3.70;99.90;;;;;;5039210;28;20056;-60
2022/04/13 04:23:00;;;;;;;14.05;9.48;;;3.60;99.90;;;;;;5033606;28;20449;-59
2022/04/13 04:25:26;;;;;;;10.80;8.30;;;3.60;99.90;;;;;;5032553;28;20040;-59
2022/04/13 04:27:52;;;;;;;13.48;8.90;;;3.70;99.90;;;;;;5045427;28;20025;-59
2022/04/13 04:30:17;;;;;;;20.55;8.98;;;3.70;99.90;;;;;;5035172;28;20090;-59
2022/04/13 04:32:43;;;;;;;14.13;8.25;;;3.60;99.90;;;;;;5032297;28;20030;-59
2022/04/13 04:35:09;;;;;;;15.88;8.50;;;3.50;99.90;;;;;;5032057;28;20040;-59
2022/04/13 04:37:35;;;;;;;11.15;8.07;;;3.50;99.90;;;;;;5031928;28;20036;-59
2022/04/13 04:40:00;;;;;;;14.50;8.45;;;3.40;99.90;;;;;;5031887;28;20033;-59
2022/04/13 04:42:27;;;;;;;12.50;8.70;;;3.30;99.90;;;;;;5047270;28;20037;-59
2022/04/13 04:44:57;;;;;;;10.98;9.40;;;3.30;99.90;;;;;;5048365;28;20026;-59
2022/04/13 04:47:23;;;;;;;12.75;8.70;;;3.40;99.90;;;;;;5032129;28;20025;-59
2022/04/13 04:49:49;;;;;;;15.23;8.68;;;3.40;99.90;;;;;;5038901;28;20020;-59
2022/04/13 04:52:15;;;;;;;18.02;9.50;;;3.40;99.90;;;;;;5043451;28;20029;-59
2022/04/13 04:54:41;;;;;;;13.43;9.82;;;3.40;99.90;;;;;;5032031;28;20018;-59
2022/04/13 04:57:08;;;;;;;17.08;9.00;;;3.50;99.90;;;;;;5033031;28;20034;-59
2022/04/13 04:59:34;;;;;;;25.73;9.38;;;3.50;99.90;;;;;;5031874;28;20033;-59
2022/04/13 05:02:00;;;;;;;19.35;9.48;;;3.70;99.90;;;;;;5033537;28;20030;-59
2022/04/13 05:04:25;;;;;;;12.00;9.40;;;3.80;99.90;;;;;;5051645;28;20028;-59
2022/04/13 05:06:51;;;;;;;13.80;9.50;;;3.90;99.90;;;;;;5049881;28;20028;-59
2022/04/13 05:09:22;;;;;;;12.10;9.23;;;3.90;99.90;;;;;;5042678;28;20048;-59
2022/04/13 05:11:47;;;;;;;14.80;8.70;;;4.00;99.90;;;;;;5031764;28;20021;-59
2022/04/13 05:14:16;;;;;;;12.85;8.57;;;4.00;99.90;;;;;;5047221;28;20397;-59
2022/04/13 05:16:41;;;;;;;18.45;9.88;;;4.10;99.90;;;;;;5051497;28;20025;-59
2022/04/13 05:19:07;;;;;;;16.05;10.43;;;4.10;99.90;;;;;;5051565;28;20067;-59
2022/04/13 05:21:33;;;;;;;11.75;8.63;;;4.20;99.90;;;;;;5051590;28;20029;-59
2022/04/13 05:23:58;;;;;;;15.38;9.32;;;4.30;99.90;;;;;;5040622;28;20380;-59
2022/04/13 05:26:24;;;;;;;12.27;8.82;;;4.50;99.90;;;;;;5044678;28;20094;-59
2022/04/13 05:28:50;;;;;;;12.98;9.45;;;4.70;99.90;;;;;;5032892;28;20459;-59
2022/04/13 05:31:15;;;;;;;9.93;8.27;;;4.90;99.90;;;;;;5037036;28;20024;-59
2022/04/13 05:33:41;;;;;;;13.35;9.27;;;4.90;99.90;;;;;;5042004;28;20392;-59
2022/04/13 05:36:07;;;;;;;11.98;9.23;;;5.00;99.90;;;;;;5040869;28;20104;-59
2022/04/13 05:38:33;;;;;;;11.50;9.35;;;5.20;99.90;;;;;;5042427;28;20032;-59
2022/04/13 05:40:59;;;;;;;12.75;9.90;;;5.20;99.90;;;;;;5040410;28;20056;-59
2022/04/13 05:43:25;;;;;;;18.20;9.98;;;5.30;99.90;;;;;;5040284;28;20052;-59
2022/04/13 05:45:51;;;;;;;12.85;10.80;;;5.30;99.90;;;;;;5039712;28;20144;-59
2022/04/13 05:48:16;;;;;;;15.48;10.35;;;5.40;99.90;;;;;;5032602;28;20496;-59
2022/04/13 05:50:42;;;;;;;20.35;12.18;;;5.40;99.90;;;;;;5031922;28;20021;-59
2022/04/13 05:53:08;;;;;;;13.82;9.48;;;5.50;99.90;;;;;;5047733;28;20036;-58
2022/04/13 05:55:33;;;;;;;12.93;9.82;;;5.80;99.90;;;;;;5054523;28;20078;-59
2022/04/13 05:57:59;;;;;;;15.75;10.57;;;6.00;99.90;;;;;;5034524;28;20061;-59
2022/04/13 06:00:25;;;;;;;15.73;10.70;;;6.20;99.90;;;;;;5035231;28;20051;-59
2022/04/13 06:02:51;;;;;;;16.48;10.55;;;6.30;99.90;;;;;;5034771;28;20026;-59
2022/04/13 06:05:17;;;;;;;18.80;11.93;;;6.60;99.90;;;;;;5034988;28;20025;-59
2022/04/13 06:07:42;;;;;;;15.88;11.15;;;6.90;99.90;;;;;;5035236;28;20026;-59
2022/04/13 06:10:10;;;;;;;17.25;11.13;;;7.20;99.90;;;;;;5054496;28;20480;-59
2022/04/13 06:12:35;;;;;;;17.95;11.70;;;7.40;99.90;;;;;;5054732;28;20025;-59
2022/04/13 06:15:08;;;;;;;14.35;10.18;;;7.60;99.90;;;;;;5043660;28;20041;-59
2022/04/13 06:17:35;;;;;;;12.55;9.55;;;7.80;99.90;;;;;;5034954;28;20477;-59
2022/04/13 06:20:02;;;;;;;16.80;10.45;;;7.90;99.90;;;;;;5035008;28;20063;-59
2022/04/13 06:22:37;;;;;;;14.32;10.32;;;8.10;99.90;;;;;;5036276;28;20041;-59
2022/04/13 06:25:03;;;;;;;15.35;10.10;;;8.20;99.90;;;;;;5034900;28;20080;-59
2022/04/13 06:27:29;;;;;;;15.68;10.95;;;8.30;99.90;;;;;;5034782;28;20029;-59
2022/04/13 06:29:55;;;;;;;18.58;10.20;;;8.40;99.90;;;;;;5034812;28;20022;-59
2022/04/13 06:32:20;;;;;;;20.95;10.57;;;8.50;99.90;;;;;;5034689;28;20028;-59
2022/04/13 06:34:46;;;;;;;12.85;9.45;;;8.50;99.90;;;;;;5035805;28;20033;-59
2022/04/13 06:37:12;;;;;;;11.85;9.52;;;8.60;99.90;;;;;;5034676;28;20029;-59
2022/04/13 06:39:37;;;;;;;16.35;8.60;;;8.70;99.90;;;;;;5034538;28;20382;-59
2022/04/13 06:42:03;;;;;;;22.35;10.23;;;8.80;99.90;;;;;;5034231;28;20026;-59
2022/04/13 06:44:29;;;;;;;13.00;8.85;;;8.90;99.90;;;;;;5050930;28;20029;-60
2022/04/13 06:46:55;;;;;;;12.48;8.85;;;9.00;99.90;;;;;;5054511;28;20021;-59
2022/04/13 06:49:21;;;;;;;14.65;9.80;;;9.10;99.90;;;;;;5054213;28;20032;-59
2022/04/13 06:51:46;;;;;;;12.35;9.82;;;9.20;99.90;;;;;;5054504;28;20029;-59
2022/04/13 06:54:12;;;;;;;16.27;9.20;;;9.20;99.90;;;;;;5039358;28;20033;-59
2022/04/13 06:56:39;;;;;;;15.38;9.00;;;9.30;99.90;;;;;;5040293;28;20162;-59
2022/04/13 06:59:05;;;;;;;16.50;9.10;;;9.30;99.90;;;;;;5038736;28;20044;-59
2022/04/13 07:01:31;;;;;;;13.20;7.97;;;9.30;99.90;;;;;;5043794;28;20021;-59
2022/04/13 07:03:57;;;;;;;14.07;8.93;;;9.40;99.90;;;;;;5038968;28;20068;-59
2022/04/13 07:06:22;;;;;;;13.55;9.10;;;9.60;99.90;;;;;;5037847;28;20037;-59
2022/04/13 07:08:48;;;;;;;18.13;9.32;;;9.50;99.90;;;;;;5048929;28;20468;-59
2022/04/13 07:11:14;;;;;;;16.27;10.23;;;9.60;99.90;;;;;;5048538;28;20033;-59
2022/04/13 07:13:40;;;;;;;12.48;9.27;;;9.70;99.90;;;;;;5033171;28;20030;-59
2022/04/13 07:16:05;;;;;;;12.90;9.55;;;9.80;99.90;;;;;;5033719;28;20059;-59
2022/04/13 07:18:31;;;;;;;15.77;8.93;;;9.80;99.90;;;;;;5049676;28;20043;-59
2022/04/13 07:20:56;;;;;;;17.98;9.93;;;10.00;99.90;;;;;;5053635;28;20029;-59
2022/04/13 07:23:22;;;;;;;13.02;9.60;;;10.10;99.90;;;;;;5053415;28;20033;-59
2022/04/13 07:25:48;;;;;;;14.70;10.13;;;10.30;99.90;;;;;;5053447;28;20027;-59
2022/04/13 07:28:14;;;;;;;14.00;8.85;;;10.40;99.90;;;;;;5038824;28;20099;-59
2022/04/13 07:30:39;;;;;;;25.15;9.48;;;10.40;99.90;;;;;;5033586;28;20025;-59
2022/04/13 07:33:05;;;;;;;12.38;8.50;;;10.50;99.90;;;;;;5033286;28;20443;-59
2022/04/13 07:35:32;;;;;;;10.85;7.88;;;10.60;99.90;;;;;;5033433;28;20645;-59
2022/04/13 07:37:57;;;;;;;14.55;8.93;;;10.70;99.90;;;;;;5044953;28;20041;-59
2022/04/13 07:40:23;;;;;;;12.02;9.07;;;10.80;99.90;;;;;;5053484;28;20032;-59
2022/04/13 07:42:49;;;;;;;16.70;10.07;;;10.90;99.90;;;;;;5053422;28;20025;-59
2022/04/13 07:45:15;;;;;;;17.90;9.52;;;11.10;99.90;;;;;;5053015;28;20056;-59
2022/04/13 07:47:41;;;;;;;13.32;8.98;;;11.30;99.90;;;;;;5043695;28;20022;-59
2022/04/13 07:50:12;;;;;;;13.80;9.00;;;11.40;99.90;;;;;;5033167;28;20022;-59
2022/04/13 07:52:38;;;;;;;14.38;9.82;;;11.60;99.90;;;;;;5038177;28;20452;-59
2022/04/13 07:55:05;;;;;;;17.05;9.15;;;11.80;99.90;;;;;;5051580;28;20477;-59
2022/04/13 07:57:30;;;;;;;15.73;9.05;;;11.80;99.90;;;;;;5053159;28;20059;-59
2022/04/13 07:59:56;;;;;;;12.85;8.95;;;11.80;99.90;;;;;;5053125;28;20429;-59
2022/04/13 08:02:22;;;;;;;10.48;7.45;;;11.80;99.90;;;;;;5036053;28;20123;-59
2022/04/13 08:04:48;;;;;;;15.77;8.65;;;11.90;99.90;;;;;;5031644;28;20022;-60
2022/04/13 08:07:14;;;;;;;11.23;8.63;;;11.90;99.90;;;;;;5034045;28;20108;-59
2022/04/13 08:09:40;;;;;;;11.68;8.98;;;12.20;99.90;;;;;;5032955;28;20028;-60
2022/04/13 08:12:07;;;;;;;17.73;9.73;;;12.40;99.90;;;;;;5048456;28;20040;-59
2022/04/13 08:14:33;;;;;;;10.85;7.30;;;12.60;99.90;;;;;;5052173;28;20044;-60
2022/04/13 08:16:59;;;;;;;15.48;8.77;;;12.60;99.90;;;;;;5050855;28;20025;-60
2022/04/13 08:19:25;;;;;;;10.73;8.63;;;13.00;99.90;;;;;;5052706;28;20020;-60
2022/04/13 08:21:50;;;;;;;14.73;9.85;;;13.10;99.90;;;;;;5050778;28;20038;-60
2022/04/13 08:24:18;;;;;;;12.15;8.82;;;13.10;99.70;;;;;;5042317;28;20047;-60
2022/04/13 08:26:46;;;;;;;15.07;10.20;;;13.20;99.80;;;;;;5072623;28;20682;-60
2022/04/13 08:29:12;;;;;;;13.38;8.43;;;13.20;99.90;;;;;;5058003;28;20029;-60
2022/04/13 08:31:38;;;;;;;14.80;8.65;;;13.30;99.80;;;;;;5052569;28;20056;-60
2022/04/13 08:34:04;;;;;;;13.57;7.78;;;13.50;99.90;;;;;;5052106;28;20797;-60
2022/04/13 08:36:29;;;;;;;10.60;7.70;;;13.50;99.90;;;;;;5052322;28;20073;-60
2022/04/13 08:38:55;;;;;;;11.75;7.38;;;13.60;98.80;;;;;;5052285;28;20083;-60
2022/04/13 08:41:51;;;;;;;10.95;6.97;;;13.50;97.90;;;;;;5038137;28;20033;-60
2022/04/13 08:44:20;;;;;;;11.32;7.00;;;13.60;98.40;;;;;;5032290;28;20025;-60
2022/04/13 08:46:47;;;;;;;10.05;8.02;;;13.70;98.70;;;;;;5032226;28;20100;-59
2022/04/13 08:49:14;;;;;;;16.30;8.13;;;13.80;98.10;;;;;;5031874;28;20495;-60
2022/04/13 08:51:40;;;;;;;17.48;8.23;;;13.90;98.40;;;;;;5040752;28;20113;-59
2022/04/13 08:54:20;;;;;;;16.35;7.85;;;13.90;98.90;;;;;;5051083;28;20107;-59
2022/04/13 08:56:53;;;;;;;16.67;9.15;;;14.00;98.60;;;;;;5050536;28;20071;-59
2022/04/13 08:59:25;;;;;;;16.98;8.30;;;14.00;98.70;;;;;;5047609;28;20029;-59
2022/04/13 09:02:33;;;;;;;16.10;8.82;;;14.00;98.00;;;;;;5036944;28;20025;-59
2022/04/13 09:05:00;;;;;;;13.27;8.45;;;14.50;98.40;;;;;;5033014;28;20533;-59
2022/04/13 09:07:32;;;;;;;14.23;8.85;;;14.50;99.20;;;;;;5031706;28;20079;-60
2022/04/13 09:10:01;;;;;;;10.20;7.70;;;14.80;98.80;;;;;;5049667;28;20112;-60
2022/04/13 09:12:30;;;;;;;13.63;7.82;;;14.90;97.10;;;;;;5051542;28;20135;-59
2022/04/13 09:14:57;;;;;;;15.40;8.15;;;15.20;97.80;;;;;;5051585;28;20045;-59
2022/04/13 09:17:28;;;;;;;13.65;8.05;;;15.10;96.70;;;;;;5049789;28;20029;-60
2022/04/13 09:19:58;;;;;;;20.63;7.68;;;15.30;97.50;;;;;;5051449;28;20025;-59
2022/04/13 09:22:24;;;;;;;15.55;7.95;;;15.60;97.10;;;;;;5051535;28;20079;-60
2022/04/13 09:24:51;;;;;;;11.82;7.70;;;15.80;96.70;;;;;;5051437;28;20515;-60
2022/04/13 09:27:20;;;;;;;13.32;7.63;;;15.90;96.30;;;;;;5033964;28;20842;-60
2022/04/13 09:29:49;;;;;;;9.48;7.68;;;16.10;96.10;;;;;;5033463;28;20067;-59
2022/04/13 09:32:15;;;;;;;12.90;7.55;;;16.20;96.50;;;;;;5051303;28;20021;-60
2022/04/13 09:34:41;;;;;;;11.98;7.00;;;16.20;95.90;;;;;;5040890;28;20044;-60
2022/04/13 09:37:07;;;;;;;10.80;7.22;;;16.50;95.20;;;;;;5030867;28;20473;-60
2022/04/13 09:39:34;;;;;;;15.20;7.65;;;16.40;94.50;;;;;;5030181;28;20053;-60
2022/04/13 09:42:05;;;;;;;11.00;7.38;;;16.80;95.00;;;;;;5030075;28;20873;-60
2022/04/13 09:44:33;;;;;;;11.05;7.93;;;17.30;93.70;;;;;;5038270;28;20499;-60
2022/04/13 09:47:33;;;;;;;9.52;8.48;;;17.20;94.20;;;;;;5049622;28;20021;-60
2022/04/13 09:50:00;;;;;;;15.68;8.27;;;17.30;92.90;;;;;;5049062;28;20044;-60
2022/04/13 09:52:38;;;;;;;13.65;8.80;;;17.40;92.40;;;;;;5050455;28;20029;-60
2022/04/13 09:55:05;;;;;;;19.38;8.50;;;17.30;94.20;;;;;;5050672;28;20063;-60
2022/04/13 09:57:31;;;;;;;11.75;8.60;;;17.60;93.30;;;;;;5050552;28;20032;-60
2022/04/13 09:59:59;;;;;;;13.40;8.20;;;17.90;92.00;;;;;;5051058;28;20068;-60
2022/04/13 10:02:51;;;;;;;12.15;8.07;;;18.10;93.10;;;;;;5031631;28;20037;-60
2022/04/13 10:05:17;;;;;;;13.52;8.65;;;17.80;90.20;;;;;;5032655;28;20030;-60
2022/04/13 10:07:43;;;;;;;12.50;8.93;;;17.70;90.30;;;;;;5031125;28;20036;-60
2022/04/13 10:10:25;;;;;;;16.20;8.07;;;17.90;90.40;;;;;;5049573;28;20055;-60
2022/04/13 10:12:52;;;;;;;17.98;9.13;;;18.10;87.10;;;;;;5050814;28;20025;-60
2022/04/13 10:15:18;;;;;;;15.02;9.50;;;18.20;88.60;;;;;;5050440;28;20587;-60
2022/04/13 10:17:43;;;;;;;16.58;10.48;;;18.00;85.20;;;;;;5050779;28;20036;-60
2022/04/13 10:20:10;;;;;;;14.70;9.05;;;17.70;86.50;;;;;;5031498;28;20065;-60
2022/04/13 10:23:02;;;;;;;14.73;8.68;;;17.80;86.20;;;;;;5030662;28;20041;-60
2022/04/13 10:25:28;;;;;;;13.13;8.23;;;18.50;88.00;;;;;;5031044;28;20416;-60
2022/04/13 10:27:59;;;;;;;15.48;8.40;;;18.50;85.00;;;;;;5030875;28;20021;-60
2022/04/13 10:30:36;;;;;;;11.75;9.23;;;18.60;85.70;;;;;;5049339;28;20472;-60
2022/04/13 10:33:04;;;;;;;14.82;9.10;;;19.20;85.00;;;;;;5050615;28;20052;-60
2022/04/13 10:35:33;;;;;;;24.02;9.13;;;19.20;80.20;;;;;;5050335;28;20025;-60
2022/04/13 10:37:59;;;;;;;14.95;8.30;;;19.20;82.70;;;;;;5051865;28;20025;-60
2022/04/13 10:40:29;;;;;;;9.50;8.00;;;19.50;79.80;;;;;;5034380;28;20025;-60
2022/04/13 10:42:59;;;;;;;14.82;8.52;;;19.60;80.10;;;;;;5034465;28;20026;-60
2022/04/13 10:45:28;;;;;;;15.50;9.13;;;19.80;75.90;;;;;;5034562;28;20052;-60
2022/04/13 10:48:08;;;;;;;23.67;10.30;;;19.80;78.20;;;;;;5034138;28;20045;-60
2022/04/13 10:50:36;;;;;;;13.25;9.27;;;19.80;77.30;;;;;;5054165;28;20063;-60
2022/04/13 10:53:27;;;;;;;16.10;9.20;;;20.30;77.10;;;;;;5053901;28;20056;-60
2022/04/13 10:56:03;;;;;;;15.68;8.52;;;20.00;75.60;;;;;;5054126;28;20083;-60
2022/04/13 10:58:49;;;;;;;16.83;9.82;;;20.30;74.80;;;;;;5051000;28;20025;-60
2022/04/13 11:01:18;;;;;;;20.35;8.00;;;20.00;73.60;;;;;;5045623;28;20086;-60
2022/04/13 11:03:45;;;;;;;16.90;8.45;;;20.30;72.70;;;;;;5053866;28;20104;-60
2022/04/13 11:06:12;;;;;;;20.40;10.00;;;20.40;72.10;;;;;;5053850;28;20457;-60
2022/04/13 11:09:07;;;;;;;13.07;8.65;;;20.50;75.30;;;;;;5048662;28;20029;-60
2022/04/13 11:11:37;;;;;;;13.80;8.27;;;20.40;74.10;;;;;;5033797;28;20037;-60
2022/04/13 11:14:20;;;;;;;12.52;8.68;;;20.40;73.60;;;;;;5032363;28;20057;-60
2022/04/13 11:16:46;;;;;;;11.15;8.73;;;20.60;72.40;;;;;;5033953;28;20052;-60
2022/04/13 11:19:12;;;;;;;11.90;8.82;;;20.70;72.00;;;;;;5042925;28;20064;-60
2022/04/13 11:21:52;;;;;;;12.50;9.60;;;21.10;71.70;;;;;;5053727;28;20067;-60
2022/04/13 11:24:37;;;;;;;14.90;9.40;;;21.30;69.60;;;;;;5053627;28;20029;-60
2022/04/13 11:27:05;;;;;;;14.95;8.77;;;22.00;69.00;;;;;;5053226;28;20033;-60
2022/04/13 11:29:35;;;;;;;14.85;8.85;;;22.50;65.50;;;;;;5041421;28;20029;-60
2022/04/13 11:32:01;;;;;;;12.60;9.93;;;22.80;64.20;;;;;;5033357;28;20026;-61
2022/04/13 11:34:48;;;;;;;26.50;8.57;;;23.10;63.50;;;;;;5033395;28;20041;-60
2022/04/13 11:37:19;;;;;;;13.68;8.57;;;23.60;62.40;;;;;;5033294;28;20022;-60
2022/04/13 11:39:50;;;;;;;18.90;8.38;;;24.10;60.00;;;;;;5046068;28;20055;-61
2022/04/13 11:42:27;;;;;;;17.92;9.60;;;24.60;54.30;;;;;;5053200;28;20078;-61
2022/04/13 11:44:59;;;;;;;12.40;6.78;;;25.10;56.60;;;;;;5053477;28;20388;-61
2022/04/13 11:47:56;;;;;;;14.37;6.70;;;25.90;52.40;;;;;;5053459;28;20021;-61
2022/04/13 11:50:33;;;;;;;10.48;7.32;;;25.70;49.00;;;;;;5033270;28;20282;-61
2022/04/13 11:53:06;;;;;;;12.48;7.32;;;26.10;49.70;;;;;;5033239;28;20049;-61
2022/04/13 11:55:40;;;;;;;12.90;7.30;;;25.80;48.80;;;;;;5033470;28;20698;-61
2022/04/13 11:58:08;;;;;;;9.52;6.65;;;24.60;48.80;;;;;;5033128;28;20310;-61
2022/04/13 12:00:55;;;;;;;11.48;7.55;;;24.60;50.70;;;;;;5053088;28;20051;-61
2022/04/13 12:03:39;;;;;;;10.05;6.18;;;24.70;51.90;;;;;;5052932;28;20036;-61
2022/04/13 12:06:18;;;;;;;24.90;7.25;;;26.00;48.70;;;;;;5052827;28;20029;-61
2022/04/13 12:08:50;;;;;;;13.20;6.60;;;25.90;49.40;;;;;;5048060;28;20018;-61
2022/04/13 12:11:21;;;;;;;12.00;6.70;;;26.20;50.20;;;;;;5032458;28;20029;-61
2022/04/13 12:13:54;;;;;;;11.15;6.78;;;26.80;49.90;;;;;;5031231;28;20168;-61
2022/04/13 12:16:23;;;;;;;10.48;7.47;;;27.30;46.90;;;;;;5032496;28;20029;-61
2022/04/13 12:18:50;;;;;;;13.05;7.07;;;27.50;47.30;;;;;;5037789;28;20049;-61
2022/04/13 12:21:17;;;;;;;13.25;7.25;;;26.80;44.80;;;;;;5052140;28;20494;-61
2022/04/13 12:23:44;;;;;;;13.95;7.68;;;26.80;47.20;;;;;;5052909;28;20025;-61
2022/04/13 12:26:10;;;;;;;11.48;6.70;;;27.20;45.30;;;;;;5052416;28;20029;-61
2022/04/13 12:28:37;;;;;;;16.92;7.13;;;27.00;45.80;;;;;;5049389;28;20027;-61
2022/04/13 12:31:12;;;;;;;7.78;5.50;;;27.10;45.50;;;;;;5032381;28;20018;-61
2022/04/13 12:33:47;;;;;;;22.58;6.53;;;27.10;46.20;;;;;;5032027;28;20026;-61
2022/04/13 12:36:16;;;;;;;17.58;6.57;;;26.90;44.80;;;;;;5032431;28;20370;-61
2022/04/13 12:38:43;;;;;;;15.25;7.20;;;26.60;45.80;;;;;;5035866;28;20079;-61
2022/04/13 12:41:12;;;;;;;10.68;6.28;;;26.30;46.10;;;;;;5050468;28;20022;-61
2022/04/13 12:43:41;;;;;;;14.95;6.30;;;26.40;45.40;;;;;;5049191;28;20075;-61
2022/04/13 12:46:12;;;;;;;13.45;5.57;;;27.60;44.60;;;;;;5051944;28;20025;-61
2022/04/13 12:48:38;;;;;;;7.68;5.47;;;28.00;45.10;;;;;;5035203;28;20033;-61